Time;durP1;ratioP1;P1;durP2;ratioP2;P2;SDS_P1;SDS_P2;PMS_P1;PMS_P2;Temp;Humidity;BMP_temperature;BMP_pressure;BME280_temperature;BME280_humidity;BME280_pressure;Samples;Min_cycle;Max_cycle;Signal;HPM_P1;HPM_P2
2024/01/09 09:36:43;;;;;;;10.88;5.78;;;;;;;;;;6125168;23;20048;-88
2024/01/09 09:39:10;;;;;;;7.97;5.40;;;;;;;;;;6126713;23;20010;-87
2024/01/09 09:41:36;;;;;;;7.28;5.13;;;;;;;;;;6125231;23;20009;-86
2024/01/09 09:44:06;;;;;;;8.75;5.45;;;;;;;;;;6127030;23;20306;-88
2024/01/09 09:46:34;;;;;;;6.93;5.35;;;;;;;;;;6149794;23;20002;-87
2024/01/09 09:49:00;;;;;;;6.68;5.25;;;;;;;;;;6127169;23;19998;-90
2024/01/09 09:51:26;;;;;;;7.35;5.82;;;;;;;;;;6125764;23;20009;-90
2024/01/09 09:53:54;;;;;;;6.90;5.50;;;;;;;;;;6125488;23;20033;-91
2024/01/09 09:56:20;;;;;;;6.68;5.35;;;;;;;;;;6125589;23;20006;-90
2024/01/09 09:58:45;;;;;;;7.53;5.63;;;;;;;;;;6125192;23;20006;-85
2024/01/09 10:01:13;;;;;;;7.10;5.70;;;;;;;;;;6127204;23;20009;-89
2024/01/09 10:03:57;;;;;;;7.78;5.43;;;;;;;;;;6126764;23;19998;-87
2024/01/09 10:06:24;;;;;;;8.90;6.03;;;;;;;;;;6126787;23;20437;-90
2024/01/09 10:08:53;;;;;;;10.07;6.38;;;;;;;;;;6126528;23;20333;-87
2024/01/09 10:11:18;;;;;;;10.10;6.22;;;;;;;;;;6127470;23;20037;-88
2024/01/09 10:13:44;;;;;;;8.27;5.82;;;;;;;;;;6127409;23;20010;-88
2024/01/09 10:16:10;;;;;;;8.23;6.20;;;;;;;;;;6127307;23;20029;-88
2024/01/09 10:18:37;;;;;;;8.27;5.57;;;;;;;;;;6127502;23;20011;-88
2024/01/09 10:21:03;;;;;;;8.80;6.55;;;;;;;;;;6129767;23;20021;-93
2024/01/09 10:23:29;;;;;;;10.88;6.88;;;;;;;;;;6128382;23;20006;-90
2024/01/09 10:25:56;;;;;;;8.07;6.00;;;;;;;;;;6128838;23;20077;-93
2024/01/09 10:28:22;;;;;;;8.63;5.80;;;;;;;;;;6128926;23;20005;-88
2024/01/09 10:30:51;;;;;;;11.23;6.28;;;;;;;;;;6129176;23;20015;-89
2024/01/09 10:33:17;;;;;;;10.40;6.28;;;;;;;;;;6127128;23;20069;-88
2024/01/09 10:35:43;;;;;;;11.07;5.95;;;;;;;;;;6128574;23;20032;-93
2024/01/09 10:38:09;;;;;;;9.57;6.55;;;;;;;;;;6127319;23;20092;-88
2024/01/09 10:40:35;;;;;;;7.40;5.78;;;;;;;;;;6128791;23;20361;-90
2024/01/09 10:43:01;;;;;;;9.20;6.45;;;;;;;;;;6151292;23;20032;-89
2024/01/09 10:45:27;;;;;;;8.73;6.22;;;;;;;;;;6127200;23;20426;-88
2024/01/09 10:47:53;;;;;;;13.90;7.07;;;;;;;;;;6130321;23;20026;-91
2024/01/09 10:50:23;;;;;;;9.32;6.25;;;;;;;;;;6137718;23;20009;-88
2024/01/09 10:52:49;;;;;;;10.50;7.25;;;;;;;;;;6151086;23;20014;-93
2024/01/09 10:55:16;;;;;;;12.35;6.97;;;;;;;;;;6149661;23;20062;-96
2024/01/09 10:57:42;;;;;;;8.05;5.38;;;;;;;;;;6132816;23;20452;-94
2024/01/09 11:00:11;;;;;;;10.70;6.57;;;;;;;;;;6131906;23;20002;-94
2024/01/09 11:02:37;;;;;;;9.90;5.97;;;;;;;;;;6129264;23;20017;-94
2024/01/09 11:05:04;;;;;;;8.35;5.60;;;;;;;;;;6130795;23;20362;-93
2024/01/09 11:07:32;;;;;;;12.90;7.93;;;;;;;;;;6130315;23;20002;-94
2024/01/09 11:09:59;;;;;;;11.95;7.70;;;;;;;;;;6129045;23;20430;-93
2024/01/09 11:12:28;;;;;;;11.25;7.20;;;;;;;;;;6130116;23;20006;-94
2024/01/09 11:15:08;;;;;;;10.57;6.95;;;;;;;;;;6127809;23;20009;-93
2024/01/09 11:17:34;;;;;;;;;;;;;;;;;;6128558;23;20026;-93
2024/01/09 11:20:04;;;;;;;12.93;7.25;;;;;;;;;;6131790;23;19909;-89
2024/01/09 11:22:33;;;;;;;;;;;;;;;;;;6129684;23;20132;-86
2024/01/09 11:25:03;;;;;;;8.65;7.05;;;;;;;;;;6153311;23;19915;-90
2024/01/09 11:27:46;;;;;;;10.73;7.57;;;;;;;;;;6130919;23;20089;-94
2024/01/09 11:30:14;;;;;;;11.60;6.93;;;;;;;;;;6133788;23;20009;-93
2024/01/09 11:32:41;;;;;;;7.93;6.47;;;;;;;;;;6157057;23;20010;-88
2024/01/09 11:37:46;;;;;;;10.52;6.28;;;;;;;;;;6189398;23;20024;-86
2024/01/09 11:40:16;;;;;;;;;;;;;;;;;;6187899;23;20144;-87
2024/01/09 11:42:48;;;;;;;8.65;6.05;;;;;;;;;;6196829;23;19939;-87
2024/01/09 11:45:38;;;;;;;8.70;6.72;;;;;;;;;;6193261;23;20033;-87
2024/01/09 11:48:12;;;;;;;10.60;6.32;;;;;;;;;;6189856;23;20009;-94
2024/01/09 11:50:41;;;;;;;9.98;6.88;;;;;;;;;;6188718;23;20006;-84
2024/01/09 11:53:09;;;;;;;13.40;7.15;;;;;;;;;;6186363;23;20012;-88
2024/01/09 11:55:35;;;;;;;8.07;6.30;;;;;;;;;;6185563;23;20005;-88
2024/01/09 12:05:50;;;;;;;10.18;7.25;;;;;;;;;;6161126;23;20016;-87
2024/01/09 12:08:18;;;;;;;15.27;9.23;;;;;;;;;;6181380;23;20383;-87
2024/01/09 12:10:59;;;;;;;11.50;8.23;;;;;;;;;;6142399;23;20016;-87
2024/01/09 12:13:57;;;;;;;14.30;8.68;;;;;;;;;;6179149;23;20417;-87
2024/01/09 12:21:49;;;;;;;15.32;9.15;;;;;;;;;;6181283;23;20047;-88
2024/01/09 12:25:01;;;;;;;12.80;8.20;;;;;;;;;;6201820;23;20020;-87
2024/01/09 12:27:51;;;;;;;12.73;9.07;;;;;;;;;;6204963;23;20017;-89
2024/01/09 12:32:46;;;;;;;15.30;9.07;;;;;;;;;;6188114;23;20412;-89
2024/01/09 12:35:12;;;;;;;16.20;9.20;;;;;;;;;;6162300;23;20009;-95
2024/01/09 12:37:38;;;;;;;14.63;9.93;;;;;;;;;;6161414;23;20420;-89
2024/01/09 12:40:09;;;;;;;14.82;9.20;;;;;;;;;;6186972;23;20080;-88
2024/01/09 12:42:35;;;;;;;14.18;9.23;;;;;;;;;;6160772;23;20009;-89
2024/01/09 12:45:02;;;;;;;14.27;9.25;;;;;;;;;;6187144;23;20092;-89
2024/01/09 19:28:46;;;;;;;15.43;9.13;;;;;;;;;;6201983;23;20432;-92
2024/01/09 19:31:11;;;;;;;13.48;9.40;;;;;;;;;;6189666;23;20080;-93
2024/01/09 19:33:38;;;;;;;16.55;10.50;;;;;;;;;;6187543;23;20012;-92
2024/01/09 19:36:08;;;;;;;18.83;10.50;;;;;;;;;;6188312;23;20009;-93
2024/01/09 19:38:33;;;;;;;15.65;9.85;;;;;;;;;;6188142;23;20005;-90
2024/01/09 19:40:59;;;;;;;14.80;9.55;;;;;;;;;;6188172;23;20012;-88
2024/01/09 19:43:25;;;;;;;14.10;9.43;;;;;;;;;;6189672;23;20332;-89
2024/01/09 19:45:51;;;;;;;16.52;10.43;;;;;;;;;;6186505;23;20009;-92
2024/01/09 19:48:17;;;;;;;17.13;10.23;;;;;;;;;;6186425;23;20012;-89
2024/01/09 19:50:43;;;;;;;17.88;10.43;;;;;;;;;;6187151;23;20023;-88
2024/01/09 19:53:09;;;;;;;15.88;10.68;;;;;;;;;;6186303;23;20005;-89
2024/01/09 19:55:34;;;;;;;16.25;10.63;;;;;;;;;;6185890;23;20009;-89
2024/01/09 19:58:00;;;;;;;18.65;11.63;;;;;;;;;;6186386;23;20005;-89
2024/01/09 20:00:25;;;;;;;17.52;10.73;;;;;;;;;;6187202;23;20009;-91
2024/01/09 20:02:51;;;;;;;15.02;10.13;;;;;;;;;;6186953;23;20016;-88
2024/01/09 20:05:16;;;;;;;15.40;10.27;;;;;;;;;;6186380;23;20060;-88
2024/01/09 20:07:42;;;;;;;18.77;11.43;;;;;;;;;;6186562;23;20340;-92
2024/01/09 20:10:08;;;;;;;18.75;11.02;;;;;;;;;;6187569;23;20012;-89
2024/01/09 20:12:37;;;;;;;18.90;11.45;;;;;;;;;;6188383;23;20008;-90
2024/01/09 20:15:03;;;;;;;18.23;11.40;;;;;;;;;;6189124;23;20112;-88
2024/01/09 20:17:29;;;;;;;17.10;11.65;;;;;;;;;;6186321;23;20091;-87
2024/01/09 20:19:54;;;;;;;17.90;11.35;;;;;;;;;;6187659;23;20028;-89
2024/01/09 20:22:20;;;;;;;18.38;11.20;;;;;;;;;;6186493;23;20063;-90
2024/01/09 20:24:47;;;;;;;17.17;10.85;;;;;;;;;;6187450;23;20005;-89
2024/01/09 20:27:13;;;;;;;20.13;11.75;;;;;;;;;;6187451;23;20013;-90
2024/01/09 20:29:39;;;;;;;19.40;12.27;;;;;;;;;;6184354;23;20024;-89
2024/01/09 20:32:05;;;;;;;20.90;12.73;;;;;;;;;;6184814;23;20005;-87
2024/01/09 20:34:31;;;;;;;25.25;16.25;;;;;;;;;;6187741;23;20003;-87
2024/01/09 20:36:57;;;;;;;23.50;14.93;;;;;;;;;;6187999;23;20029;-89
2024/01/09 20:39:23;;;;;;;19.70;12.43;;;;;;;;;;6185468;23;20076;-89
2024/01/09 20:41:49;;;;;;;20.48;11.70;;;;;;;;;;6187633;23;20417;-90
2024/01/09 20:44:17;;;;;;;18.02;12.02;;;;;;;;;;6186797;23;20001;-90
2024/01/09 20:46:43;;;;;;;19.17;12.98;;;;;;;;;;6185124;23;20091;-88
2024/01/09 20:49:11;;;;;;;20.58;12.32;;;;;;;;;;6185404;23;20332;-91
2024/01/09 20:51:37;;;;;;;17.20;11.80;;;;;;;;;;6185622;23;20439;-89
2024/01/09 20:54:03;;;;;;;25.38;15.45;;;;;;;;;;6185152;23;20009;-90
2024/01/09 20:56:28;;;;;;;24.42;13.63;;;;;;;;;;6185586;23;20443;-89
2024/01/09 20:58:55;;;;;;;24.27;15.45;;;;;;;;;;6184683;23;20009;-88
2024/01/09 21:01:21;;;;;;;22.55;13.98;;;;;;;;;;6185712;23;20009;-89
2024/01/09 21:03:46;;;;;;;20.38;12.57;;;;;;;;;;6161123;23;20015;-89
2024/01/09 21:06:12;;;;;;;20.40;14.13;;;;;;;;;;6186516;23;20060;-90
2024/01/09 21:08:39;;;;;;;23.75;14.02;;;;;;;;;;6185769;23;20095;-89
2024/01/09 21:11:05;;;;;;;22.58;13.82;;;;;;;;;;6186940;23;20005;-88
2024/01/09 21:13:31;;;;;;;25.83;15.57;;;;;;;;;;6189967;23;20011;-90
2024/01/09 21:15:57;;;;;;;23.13;14.15;;;;;;;;;;6191130;23;20080;-88
2024/01/09 21:18:22;;;;;;;24.55;14.93;;;;;;;;;;6188615;23;20063;-89
2024/01/09 21:20:48;;;;;;;28.23;16.10;;;;;;;;;;6186447;23;20438;-87
2024/01/09 21:23:13;;;;;;;27.10;15.50;;;;;;;;;;6185790;23;20099;-89
2024/01/09 21:25:39;;;;;;;23.77;15.55;;;;;;;;;;6185347;23;20375;-89
2024/01/09 21:28:05;;;;;;;24.27;15.40;;;;;;;;;;6184739;23;20029;-89
2024/01/09 21:30:33;;;;;;;22.80;14.75;;;;;;;;;;6186392;23;20001;-90
2024/01/09 21:32:59;;;;;;;21.85;14.38;;;;;;;;;;6185242;23;20363;-87
2024/01/09 21:35:24;;;;;;;21.98;14.15;;;;;;;;;;6185337;23;20067;-90
2024/01/09 21:37:51;;;;;;;23.52;14.40;;;;;;;;;;6186878;23;20294;-89
2024/01/09 21:40:16;;;;;;;25.80;14.90;;;;;;;;;;6185408;23;20027;-90
2024/01/09 21:42:42;;;;;;;23.05;14.15;;;;;;;;;;6186833;23;20412;-90
2024/01/09 21:45:09;;;;;;;22.90;14.55;;;;;;;;;;6186089;23;20013;-88
2024/01/09 21:47:36;;;;;;;21.02;14.55;;;;;;;;;;6185016;23;20005;-91
2024/01/09 21:50:02;;;;;;;26.02;14.90;;;;;;;;;;6185830;23;20336;-88
2024/01/09 21:52:28;;;;;;;21.70;14.00;;;;;;;;;;6184939;23;20061;-89
2024/01/09 21:54:53;;;;;;;21.67;14.00;;;;;;;;;;6186100;23;20009;-93
2024/01/09 21:57:19;;;;;;;23.55;14.48;;;;;;;;;;6184740;23;20356;-91
2024/01/09 21:59:45;;;;;;;21.92;14.60;;;;;;;;;;6185352;23;20013;-90
2024/01/09 22:02:10;;;;;;;21.90;13.48;;;;;;;;;;6186125;23;19998;-89
2024/01/09 22:04:37;;;;;;;22.98;13.93;;;;;;;;;;6187989;23;20001;-91
2024/01/09 22:07:07;;;;;;;22.85;14.43;;;;;;;;;;6188554;23;20001;-88
2024/01/09 22:09:34;;;;;;;21.38;14.25;;;;;;;;;;6190836;23;20012;-88
2024/01/09 22:11:59;;;;;;;21.60;14.55;;;;;;;;;;6189181;23;20005;-92
2024/01/09 22:14:25;;;;;;;23.05;13.98;;;;;;;;;;6188815;23;20004;-89
2024/01/09 22:16:51;;;;;;;21.65;14.35;;;;;;;;;;6189371;23;20013;-90
2024/01/09 22:19:17;;;;;;;24.17;14.55;;;;;;;;;;6187723;23;20467;-89
2024/01/09 22:21:44;;;;;;;22.10;13.98;;;;;;;;;;6188779;23;20008;-90
2024/01/09 22:24:14;;;;;;;24.33;14.30;;;;;;;;;;6189101;23;20005;-88
2024/01/09 22:26:44;;;;;;;26.13;14.50;;;;;;;;;;6189848;23;20005;-89
2024/01/09 22:29:10;;;;;;;22.23;13.52;;;;;;;;;;6188265;23;20013;-89
2024/01/09 22:31:35;;;;;;;23.58;13.88;;;;;;;;;;6187563;23;20412;-89
2024/01/09 22:34:02;;;;;;;21.98;13.93;;;;;;;;;;6189310;23;19993;-91
2024/01/09 22:36:27;;;;;;;20.67;13.13;;;;;;;;;;6188373;23;20028;-90
2024/01/09 22:38:54;;;;;;;26.85;15.00;;;;;;;;;;6189654;23;20009;-89
2024/01/09 22:41:29;;;;;;;22.50;13.80;;;;;;;;;;6187832;23;20036;-89
2024/01/09 22:43:55;;;;;;;21.23;14.45;;;;;;;;;;6188156;23;20009;-90
2024/01/09 22:46:23;;;;;;;24.02;14.13;;;;;;;;;;6188053;23;20032;-88
2024/01/09 22:48:48;;;;;;;24.35;14.77;;;;;;;;;;6188205;23;20008;-88
2024/01/09 22:51:22;;;;;;;22.38;14.02;;;;;;;;;;6190072;23;20001;-87
2024/01/09 22:53:51;;;;;;;25.00;15.25;;;;;;;;;;6188175;23;20005;-87
2024/01/09 22:56:16;;;;;;;21.63;13.02;;;;;;;;;;6188163;23;20091;-87
